TFM - Tactical Decision Aid (Experimental) INFO Settings
ID: Runway Winds: CIG/VIS Threshold: METAR Board: Map:

KPDK - Atlanta-Dekalb Peachtree

Updated at: 2258 UTC 20 Feb 2018
Latest TAF at: 2000 UTC 20 Feb 2018

TAF Board

Time2253Z20/23Z21/00Z21/01Z21/02Z21/03Z21/04Z21/05Z21/06Z21/07Z21/08Z21/09Z21/10Z21/11Z
TypeOBSPRVLPRVLPRVLPRVLPRVLPRVLPRVLPRVLPRVLPRVLPRVLPRVLPRVL
VIS10>6>6>6>6>6>6>6>6>6>6444
CIG8035353525252525666333
CoverOVCOVCOVCOVCBKNBKNBKNBKNOVCOVCOVCOVCOVCOVC
FltCatVFRVFRVFRVFRMVFRMVFRMVFRMVFRIFRIFRIFRLIFRLIFRLIFR
WX--------VCSHVCSHVCSHVCSH------BRBRBR
WDir140140140140VRBVRBVRBVRB140140140150150150
WSpd55554444555666
WGst----------------------------
TAF
KPDK 202000Z 2020/2118 14005KT P6SM BKN035 OVC060
  FM210200 VRB04KT P6SM VCSH BKN025
  FM210600 14005KT P6SM OVC006
  FM210900 15006KT 4SM BR OVC003
  FM211600 16006KT 6SM BR BKN007


METAR
KPDK 202253Z 14005KT 10SM OVC080 22/16 A3033 RMK AO2 SLP262 T02220156
KPDK 202153Z 15010KT 10SM FEW042 OVC075 23/15 A3031 RMK AO2 SLP256 T02280150

TAF/METAR Board Legend

Potential Impact
  None Marginal Slight Moderate High
Visibility (sm) >5 3≤X≤5 2≤X<3 1≤X<2 <1
Ceiling (100 ft) >30 10≤X≤30 6≤X<10 4≤X<6 <4
Wind Speed (kt) <10 10≤X<20 20≤X<30 ≥30
Wind Gust (kt) <15 15≤X<25 25≤X<35 ≥35
Weather No Wx Reported VCTS -TS,-FZRA TS,FZRA +TS,+FZRA





Page loaded:  22:58 UTC  |   02:58 PM Pacific  |   03:58 PM Mountain  |   04:58 PM Central  |   05:58 PM Eastern